Time;durP1;ratioP1;P1;durP2;ratioP2;P2;SDS_P1;SDS_P2;PMS_P1;PMS_P2;Temp;Humidity;BMP_temperature;BMP_pressure;BME280_temperature;BME280_humidity;BME280_pressure;Samples;Min_cycle;Max_cycle;Signal;HPM_P1;HPM_P2
2023/09/20 00:02:13;;;;;;;1.80;1.00;;;;;;;;;;5086377;28;20059;-68
2023/09/20 00:04:44;;;;;;;2.03;1.80;;;;;;;;;;5086408;28;20146;-68
2023/09/20 00:07:13;;;;;;;1.38;0.85;;;;;;;;;;5084306;28;20047;-68
2023/09/20 00:09:42;;;;;;;1.40;0.80;;;;;;;;;;5083424;28;20056;-68
2023/09/20 00:12:10;;;;;;;3.28;0.80;;;;;;;;;;5086732;28;20519;-68
2023/09/20 00:14:39;;;;;;;2.70;0.90;;;;;;;;;;5084803;28;20673;-68
2023/09/20 00:17:07;;;;;;;2.03;0.90;;;;;;;;;;5083654;28;20177;-68
2023/09/20 00:19:38;;;;;;;2.30;0.88;;;;;;;;;;5086045;28;20059;-68
2023/09/20 00:22:10;;;;;;;1.50;0.93;;;;;;;;;;5078830;28;20044;-68
2023/09/20 00:24:39;;;;;;;1.00;0.90;;;;;;;;;;5083759;28;20067;-68
2023/09/20 00:27:09;;;;;;;1.20;0.80;;;;;;;;;;5087341;28;20040;-68
2023/09/20 00:29:37;;;;;;;1.45;1.00;;;;;;;;;;5084920;28;20546;-68
2023/09/20 00:32:07;;;;;;;3.42;1.35;;;;;;;;;;5083012;28;20511;-68
2023/09/20 00:34:36;;;;;;;1.88;0.90;;;;;;;;;;5086994;28;20140;-66
2023/09/20 00:37:04;;;;;;;5.82;1.10;;;;;;;;;;5082215;28;20046;-66
2023/09/20 00:39:34;;;;;;;1.88;0.85;;;;;;;;;;5084754;28;20056;-66
2023/09/20 00:42:03;;;;;;;1.95;0.85;;;;;;;;;;5084131;28;20497;-66
2023/09/20 00:44:35;;;;;;;1.65;0.85;;;;;;;;;;5082447;28;20048;-66
2023/09/20 00:47:04;;;;;;;1.55;0.80;;;;;;;;;;5080858;28;20040;-66
2023/09/20 00:49:34;;;;;;;1.08;0.52;;;;;;;;;;5083607;28;20127;-68
2023/09/20 00:52:04;;;;;;;1.67;0.73;;;;;;;;;;5083079;28;20048;-68
2023/09/20 00:54:33;;;;;;;3.03;0.80;;;;;;;;;;5084567;28;20504;-68
2023/09/20 00:57:05;;;;;;;2.03;0.80;;;;;;;;;;5083555;28;20051;-68
2023/09/20 00:59:34;;;;;;;1.98;1.20;;;;;;;;;;5083448;28;20044;-68
2023/09/20 01:02:02;;;;;;;1.60;0.93;;;;;;;;;;5085057;28;20060;-68
2023/09/20 01:04:31;;;;;;;1.25;0.60;;;;;;;;;;5085121;28;20086;-66
2023/09/20 01:06:59;;;;;;;1.17;0.65;;;;;;;;;;5079923;28;20451;-65
2023/09/20 01:09:29;;;;;;;1.00;0.82;;;;;;;;;;5085625;28;20066;-66
2023/09/20 01:11:58;;;;;;;2.60;0.88;;;;;;;;;;5086493;28;20040;-66
2023/09/20 01:14:27;;;;;;;6.88;1.15;;;;;;;;;;5083592;28;20044;-66
2023/09/20 01:16:56;;;;;;;1.85;0.95;;;;;;;;;;5083368;28;20313;-66
2023/09/20 01:19:24;;;;;;;1.08;0.63;;;;;;;;;;5080652;28;20115;-66
2023/09/20 01:21:54;;;;;;;1.27;0.93;;;;;;;;;;5082814;28;20076;-66
2023/09/20 01:24:24;;;;;;;1.35;0.80;;;;;;;;;;5086028;28;20048;-66
2023/09/20 01:26:57;;;;;;;1.10;0.70;;;;;;;;;;5088599;28;20047;-66
2023/09/20 01:29:25;;;;;;;1.40;0.85;;;;;;;;;;5082021;28;20060;-66
2023/09/20 01:32:00;;;;;;;2.55;0.85;;;;;;;;;;5083833;28;20063;-66
2023/09/20 01:34:29;;;;;;;0.95;0.70;;;;;;;;;;5084739;28;20127;-66
2023/09/20 01:36:59;;;;;;;1.92;0.70;;;;;;;;;;5081612;28;20052;-66
2023/09/20 01:39:28;;;;;;;2.58;0.60;;;;;;;;;;5084705;28;20109;-66
2023/09/20 01:41:57;;;;;;;1.73;0.80;;;;;;;;;;5084069;28;20067;-66
2023/09/20 01:44:27;;;;;;;1.50;0.60;;;;;;;;;;5083024;28;20055;-66
2023/09/20 01:46:56;;;;;;;1.30;0.75;;;;;;;;;;5084518;28;20055;-66
2023/09/20 01:49:25;;;;;;;1.60;0.70;;;;;;;;;;5082361;28;20053;-68
2023/09/20 01:51:54;;;;;;;2.88;0.82;;;;;;;;;;5082066;28;20055;-67
2023/09/20 01:54:28;;;;;;;1.30;0.90;;;;;;;;;;5084095;28;20036;-66
2023/09/20 01:56:57;;;;;;;2.10;0.95;;;;;;;;;;5083339;28;20047;-66
2023/09/20 01:59:25;;;;;;;2.22;0.90;;;;;;;;;;5080636;28;20068;-66
2023/09/20 02:01:53;;;;;;;3.83;0.63;;;;;;;;;;5081039;28;20806;-66
2023/09/20 02:04:22;;;;;;;1.15;0.60;;;;;;;;;;5081269;28;20131;-66
2023/09/20 02:06:50;;;;;;;1.90;0.80;;;;;;;;;;5080586;28;20052;-66
2023/09/20 02:09:19;;;;;;;0.98;0.70;;;;;;;;;;5080484;28;20051;-66
2023/09/20 02:11:49;;;;;;;1.42;0.65;;;;;;;;;;5080697;28;20321;-66
2023/09/20 02:14:17;;;;;;;0.80;0.45;;;;;;;;;;5083386;28;20455;-66
2023/09/20 02:16:46;;;;;;;1.65;0.70;;;;;;;;;;5083799;28;20044;-66
2023/09/20 02:19:14;;;;;;;4.05;0.80;;;;;;;;;;5084726;28;20040;-66
2023/09/20 02:21:45;;;;;;;1.92;1.15;;;;;;;;;;5083382;28;20044;-66
2023/09/20 02:24:14;;;;;;;2.60;0.90;;;;;;;;;;5081081;28;20056;-66
2023/09/20 02:26:48;;;;;;;0.90;0.80;;;;;;;;;;5086317;28;20093;-66
2023/09/20 02:29:22;;;;;;;0.90;0.47;;;;;;;;;;5080426;28;20052;-66
2023/09/20 02:31:51;;;;;;;1.15;0.70;;;;;;;;;;5076946;28;20056;-66
2023/09/20 02:34:19;;;;;;;0.90;0.70;;;;;;;;;;5079261;28;20466;-66
2023/09/20 02:36:48;;;;;;;2.03;0.93;;;;;;;;;;5080630;28;20894;-66
2023/09/20 02:39:18;;;;;;;6.95;0.80;;;;;;;;;;5079565;28;20089;-66
2023/09/20 02:41:46;;;;;;;2.08;0.90;;;;;;;;;;5081901;28;20496;-66
2023/09/20 02:44:15;;;;;;;3.95;0.70;;;;;;;;;;5084573;28;20063;-66
2023/09/20 02:46:48;;;;;;;1.17;0.73;;;;;;;;;;5075982;28;20044;-66
2023/09/20 02:49:16;;;;;;;1.48;0.77;;;;;;;;;;5084021;28;20106;-66
2023/09/20 02:51:45;;;;;;;0.50;0.50;;;;;;;;;;5080782;28;20496;-66
2023/09/20 02:54:17;;;;;;;1.13;0.57;;;;;;;;;;5078124;28;20416;-66
2023/09/20 02:56:46;;;;;;;3.17;0.80;;;;;;;;;;5085815;28;20473;-66
2023/09/20 02:59:15;;;;;;;0.75;0.60;;;;;;;;;;5084857;28;20048;-66
2023/09/20 03:01:46;;;;;;;0.90;0.65;;;;;;;;;;5083693;28;20054;-67
2023/09/20 03:04:15;;;;;;;0.77;0.63;;;;;;;;;;5081630;28;20044;-67
2023/09/20 03:06:44;;;;;;;1.25;0.60;;;;;;;;;;5083838;28;20055;-68
2023/09/20 03:09:13;;;;;;;1.52;0.90;;;;;;;;;;5083389;28;20581;-68
2023/09/20 03:11:41;;;;;;;2.45;0.70;;;;;;;;;;5080929;28;20055;-68
2023/09/20 03:14:10;;;;;;;5.15;0.80;;;;;;;;;;5086661;28;20080;-68
2023/09/20 03:16:38;;;;;;;1.20;0.68;;;;;;;;;;5086328;28;20547;-67
2023/09/20 03:19:09;;;;;;;0.85;0.68;;;;;;;;;;5082067;28;20052;-67
2023/09/20 03:21:43;;;;;;;3.42;0.73;;;;;;;;;;5059212;28;20068;-67
2023/09/20 03:24:12;;;;;;;0.68;0.68;;;;;;;;;;5067542;28;20125;-67
2023/09/20 03:26:42;;;;;;;2.10;0.68;;;;;;;;;;5067469;28;20048;-67
2023/09/20 03:29:10;;;;;;;1.13;0.70;;;;;;;;;;5063441;28;20528;-67
2023/09/20 03:31:42;;;;;;;1.88;0.63;;;;;;;;;;5080117;28;20052;-67
2023/09/20 03:34:14;;;;;;;0.77;0.60;;;;;;;;;;5085067;28;20044;-67
2023/09/20 03:36:43;;;;;;;1.73;0.68;;;;;;;;;;5084169;28;20473;-67
2023/09/20 03:39:13;;;;;;;1.35;0.80;;;;;;;;;;5087711;28;20044;-67
2023/09/20 03:41:43;;;;;;;1.73;0.60;;;;;;;;;;5088443;28;20496;-67
2023/09/20 03:44:14;;;;;;;1.13;0.82;;;;;;;;;;5086944;28;20052;-67
2023/09/20 03:46:42;;;;;;;1.15;0.68;;;;;;;;;;5086300;28;20040;-68
2023/09/20 03:49:13;;;;;;;1.90;0.77;;;;;;;;;;5086110;28;20457;-67
2023/09/20 03:51:41;;;;;;;6.30;0.80;;;;;;;;;;5084323;28;20043;-67
2023/09/20 03:54:09;;;;;;;1.77;0.60;;;;;;;;;;5086103;28;20047;-67
2023/09/20 03:56:41;;;;;;;3.40;0.85;;;;;;;;;;5084257;28;20044;-67
2023/09/20 03:59:12;;;;;;;3.92;0.80;;;;;;;;;;5085203;28;20040;-67
2023/09/20 04:01:40;;;;;;;1.70;0.55;;;;;;;;;;5081536;28;20420;-67
2023/09/20 04:04:09;;;;;;;0.98;0.68;;;;;;;;;;5086219;28;20066;-67
2023/09/20 04:06:39;;;;;;;1.23;0.70;;;;;;;;;;5083609;28;20051;-67
2023/09/20 04:09:10;;;;;;;1.35;0.85;;;;;;;;;;5085612;28;20116;-68
2023/09/20 04:11:39;;;;;;;0.77;0.68;;;;;;;;;;5082007;28;20638;-67
2023/09/20 04:14:08;;;;;;;1.38;0.80;;;;;;;;;;5083640;28;20072;-67
2023/09/20 04:16:39;;;;;;;1.75;0.70;;;;;;;;;;5080772;28;20494;-67
2023/09/20 04:19:08;;;;;;;1.35;0.60;;;;;;;;;;5086324;28;20570;-67
2023/09/20 04:21:37;;;;;;;1.48;0.80;;;;;;;;;;5080529;28;20491;-68
2023/09/20 04:24:07;;;;;;;1.10;0.70;;;;;;;;;;5081139;28;20091;-68
2023/09/20 04:26:35;;;;;;;2.60;0.95;;;;;;;;;;5078873;28;20513;-68
2023/09/20 04:29:04;;;;;;;1.48;0.80;;;;;;;;;;5082820;28;20106;-68
2023/09/20 04:31:33;;;;;;;2.17;0.52;;;;;;;;;;5076030;28;20052;-68
2023/09/20 04:34:02;;;;;;;2.33;0.77;;;;;;;;;;5081840;28;20497;-68
2023/09/20 04:36:30;;;;;;;2.15;0.65;;;;;;;;;;5081170;28;20552;-68
2023/09/20 04:38:58;;;;;;;2.00;0.65;;;;;;;;;;5077121;28;20109;-68
2023/09/20 04:41:28;;;;;;;1.85;0.80;;;;;;;;;;5083241;28;20125;-67
2023/09/20 04:43:56;;;;;;;1.65;0.80;;;;;;;;;;5083252;28;20127;-68
2023/09/20 04:46:27;;;;;;;1.08;0.75;;;;;;;;;;5078970;28;20055;-67
2023/09/20 04:48:55;;;;;;;2.10;0.68;;;;;;;;;;5087033;28;21013;-68
2023/09/20 04:51:24;;;;;;;4.65;0.90;;;;;;;;;;5082275;28;20044;-68
2023/09/20 04:53:53;;;;;;;1.48;0.70;;;;;;;;;;5084283;28;20477;-67
2023/09/20 04:56:21;;;;;;;1.67;0.77;;;;;;;;;;5078551;28;20032;-68
2023/09/20 04:58:51;;;;;;;1.33;0.80;;;;;;;;;;5085174;28;20051;-68
2023/09/20 05:01:20;;;;;;;3.88;0.88;;;;;;;;;;5077572;28;20400;-68
2023/09/20 05:03:50;;;;;;;2.42;0.80;;;;;;;;;;5084264;28;20088;-67
2023/09/20 05:06:19;;;;;;;1.83;1.00;;;;;;;;;;5081485;28;20129;-68
2023/09/20 05:08:49;;;;;;;2.90;0.70;;;;;;;;;;5087465;28;20479;-68
2023/09/20 05:11:19;;;;;;;2.95;0.80;;;;;;;;;;5080287;28;20059;-68
2023/09/20 05:13:47;;;;;;;4.22;0.90;;;;;;;;;;5081158;28;20050;-67
2023/09/20 05:16:17;;;;;;;1.70;0.75;;;;;;;;;;5085005;28;20105;-67
2023/09/20 05:18:45;;;;;;;1.85;0.80;;;;;;;;;;5081318;28;20044;-67
2023/09/20 05:21:14;;;;;;;1.35;0.90;;;;;;;;;;5083403;28;20132;-68
2023/09/20 05:23:42;;;;;;;1.38;0.73;;;;;;;;;;5084189;28;20124;-67
2023/09/20 05:26:11;;;;;;;6.57;1.15;;;;;;;;;;5087173;28;20087;-68
2023/09/20 05:28:39;;;;;;;2.45;0.80;;;;;;;;;;5085048;28;20420;-67
2023/09/20 05:31:08;;;;;;;2.38;0.93;;;;;;;;;;5083935;28;20134;-68
2023/09/20 05:33:39;;;;;;;2.63;0.90;;;;;;;;;;5078588;28;20056;-66
2023/09/20 05:36:07;;;;;;;1.83;0.98;;;;;;;;;;5084001;28;20272;-66
2023/09/20 05:38:36;;;;;;;2.92;0.85;;;;;;;;;;5084932;28;20052;-66
2023/09/20 05:41:04;;;;;;;1.45;0.88;;;;;;;;;;5084672;28;20078;-66
2023/09/20 05:43:32;;;;;;;1.60;0.80;;;;;;;;;;5084993;28;20048;-66
2023/09/20 05:46:07;;;;;;;1.73;0.98;;;;;;;;;;5081811;28;20047;-66
2023/09/20 05:48:36;;;;;;;1.85;0.80;;;;;;;;;;5079542;28;20036;-67
2023/09/20 05:51:05;;;;;;;1.77;0.80;;;;;;;;;;5083459;28;20047;-66
2023/09/20 05:53:34;;;;;;;0.82;0.73;;;;;;;;;;5088966;28;20048;-66
2023/09/20 05:56:07;;;;;;;1.35;0.80;;;;;;;;;;5081930;28;20048;-65
2023/09/20 05:58:36;;;;;;;2.55;0.70;;;;;;;;;;5084759;28;21193;-64
2023/09/20 06:01:04;;;;;;;1.50;1.00;;;;;;;;;;5082022;28;20758;-63
2023/09/20 06:03:33;;;;;;;4.78;0.85;;;;;;;;;;5083727;28;20067;-64
2023/09/20 06:06:04;;;;;;;1.70;0.90;;;;;;;;;;5080697;28;20059;-64
2023/09/20 06:08:33;;;;;;;2.60;0.88;;;;;;;;;;5084470;28;20567;-65
2023/09/20 06:11:04;;;;;;;1.83;0.90;;;;;;;;;;5087153;28;20552;-64
2023/09/20 06:13:33;;;;;;;1.33;0.70;;;;;;;;;;5085650;28;20045;-64
2023/09/20 06:16:07;;;;;;;1.98;0.90;;;;;;;;;;5086234;28;20119;-65
2023/09/20 06:18:35;;;;;;;2.45;0.90;;;;;;;;;;5084570;28;20040;-64
2023/09/20 06:21:08;;;;;;;2.30;1.23;;;;;;;;;;5081542;28;20669;-64
2023/09/20 06:23:39;;;;;;;4.60;1.00;;;;;;;;;;5085910;28;20480;-65
2023/09/20 06:26:09;;;;;;;1.38;0.70;;;;;;;;;;5085274;28;20040;-65
2023/09/20 06:28:40;;;;;;;4.88;1.00;;;;;;;;;;5087528;28;20076;-64
2023/09/20 06:31:12;;;;;;;1.38;0.93;;;;;;;;;;5082079;28;20044;-65
2023/09/20 06:33:41;;;;;;;1.75;1.02;;;;;;;;;;5089909;28;20574;-65
2023/09/20 06:36:10;;;;;;;1.65;1.02;;;;;;;;;;5087667;28;20040;-64
2023/09/20 06:38:42;;;;;;;1.15;0.82;;;;;;;;;;5088493;28;20545;-64
2023/09/20 06:41:12;;;;;;;2.05;1.00;;;;;;;;;;5088778;28;20063;-64
2023/09/20 06:43:41;;;;;;;2.38;1.08;;;;;;;;;;5081246;28;20372;-65
2023/09/20 06:46:11;;;;;;;8.45;1.10;;;;;;;;;;5084276;28;20112;-66
2023/09/20 06:48:39;;;;;;;1.67;1.00;;;;;;;;;;5087935;28;20515;-65
2023/09/20 06:51:08;;;;;;;2.80;1.08;;;;;;;;;;5088400;28;20115;-66
2023/09/20 06:53:37;;;;;;;2.22;1.25;;;;;;;;;;5089166;28;20048;-66
2023/09/20 06:56:07;;;;;;;2.50;1.15;;;;;;;;;;5090065;28;20503;-66
2023/09/20 06:58:35;;;;;;;2.85;1.13;;;;;;;;;;5084273;28;20113;-66
2023/09/20 07:01:05;;;;;;;3.25;1.10;;;;;;;;;;5088836;28;20036;-67
2023/09/20 07:03:34;;;;;;;6.78;1.42;;;;;;;;;;5090051;28;20512;-66
2023/09/20 07:06:05;;;;;;;7.47;1.48;;;;;;;;;;5084581;28;20052;-66
2023/09/20 07:08:34;;;;;;;1.90;0.93;;;;;;;;;;5088511;28;20174;-67
2023/09/20 07:11:04;;;;;;;7.65;1.20;;;;;;;;;;5086168;28;20048;-66
2023/09/20 07:13:34;;;;;;;3.10;1.35;;;;;;;;;;5087924;28;20075;-66
2023/09/20 07:16:05;;;;;;;3.83;1.00;;;;;;;;;;5084399;28;20078;-66
2023/09/20 07:18:35;;;;;;;2.53;1.70;;;;;;;;;;5085371;28;20048;-66
2023/09/20 07:21:07;;;;;;;8.85;1.40;;;;;;;;;;5080768;28;20202;-66
2023/09/20 07:23:35;;;;;;;4.95;1.45;;;;;;;;;;5081630;28;20063;-66
2023/09/20 07:26:04;;;;;;;3.08;0.93;;;;;;;;;;5087185;28;20503;-65
2023/09/20 07:28:36;;;;;;;5.05;1.10;;;;;;;;;;5083672;28;20040;-66
2023/09/20 07:31:06;;;;;;;2.63;0.95;;;;;;;;;;5087466;28;20551;-66
2023/09/20 07:33:38;;;;;;;2.40;1.00;;;;;;;;;;5079245;28;20139;-67
2023/09/20 07:36:07;;;;;;;5.00;1.17;;;;;;;;;;5078889;28;20054;-67
2023/09/20 07:38:36;;;;;;;6.95;2.30;;;;;;;;;;5080851;28;20044;-67
2023/09/20 07:41:12;;;;;;;1.17;0.88;;;;;;;;;;5076488;28;20039;-66
2023/09/20 07:43:43;;;;;;;3.33;1.30;;;;;;;;;;5085895;28;20052;-68
2023/09/20 07:46:15;;;;;;;4.68;0.88;;;;;;;;;;5084127;28;20309;-67
2023/09/20 07:48:48;;;;;;;2.88;1.45;;;;;;;;;;5080421;28;20052;-66
2023/09/20 07:51:24;;;;;;;2.80;1.10;;;;;;;;;;5083525;28;20052;-66
2023/09/20 07:53:54;;;;;;;;;;;;;;;;;;5088804;28;20048;-66
2023/09/20 07:56:23;;;;;;;2.17;1.02;;;;;;;;;;5084815;28;19928;-66
2023/09/20 07:58:53;;;;;;;2.25;1.10;;;;;;;;;;5085022;28;20040;-66
2023/09/20 08:01:24;;;;;;;1.20;0.90;;;;;;;;;;5081872;28;20141;-66
2023/09/20 08:03:53;;;;;;;1.10;0.65;;;;;;;;;;5082212;28;20564;-66
2023/09/20 08:06:25;;;;;;;2.72;1.05;;;;;;;;;;5077563;28;20673;-66
2023/09/20 08:08:54;;;;;;;3.13;1.10;;;;;;;;;;5081411;28;20382;-66
2023/09/20 08:11:22;;;;;;;1.25;0.63;;;;;;;;;;5079257;28;20048;-66
2023/09/20 08:13:52;;;;;;;1.30;0.77;;;;;;;;;;5081187;28;20064;-66
2023/09/20 08:16:22;;;;;;;1.13;0.70;;;;;;;;;;5079843;28;20040;-66
2023/09/20 08:19:04;;;;;;;1.42;0.98;;;;;;;;;;5077412;28;20489;-66
2023/09/20 08:21:33;;;;;;;2.47;1.27;;;;;;;;;;5081801;28;20048;-67
2023/09/20 09:00:24;;;;;;;3.15;1.00;;;;;;;;;;5080098;28;20044;-67
2023/09/20 09:02:54;;;;;;;3.20;1.25;;;;;;;;;;5073120;28;20047;-67
2023/09/20 09:05:25;;;;;;;1.95;0.95;;;;;;;;;;5076843;28;20048;-68
2023/09/20 09:07:54;;;;;;;4.47;1.33;;;;;;;;;;5073255;28;20414;-66
2023/09/20 09:10:23;;;;;;;2.45;0.95;;;;;;;;;;5079100;28;20532;-68
2023/09/20 09:12:54;;;;;;;2.65;0.95;;;;;;;;;;5080616;28;20048;-67
2023/09/20 09:15:22;;;;;;;4.53;1.00;;;;;;;;;;5077700;28;20040;-66
2023/09/20 09:17:51;;;;;;;3.55;0.90;;;;;;;;;;5080208;28;20436;-65
2023/09/20 09:20:20;;;;;;;2.05;0.98;;;;;;;;;;5080646;28;20050;-67
2023/09/20 09:22:51;;;;;;;3.55;1.00;;;;;;;;;;5080516;28;20079;-68
2023/09/20 09:25:21;;;;;;;1.48;0.90;;;;;;;;;;5083525;28;20075;-66
2023/09/20 09:27:49;;;;;;;2.35;1.00;;;;;;;;;;5077445;28;20083;-66
2023/09/20 09:30:18;;;;;;;2.60;1.30;;;;;;;;;;5075264;28;20044;-66
2023/09/20 09:32:47;;;;;;;2.83;0.93;;;;;;;;;;5074911;28;20128;-66
2023/09/20 09:35:19;;;;;;;1.60;0.98;;;;;;;;;;5077492;28;20056;-66
2023/09/20 09:38:05;;;;;;;1.80;0.80;;;;;;;;;;5077762;28;20043;-65
2023/09/20 09:40:33;;;;;;;1.52;1.00;;;;;;;;;;5072431;28;20040;-66
2023/09/20 09:43:13;;;;;;;3.20;1.00;;;;;;;;;;5077495;28;20043;-66
2023/09/20 09:45:44;;;;;;;2.10;0.90;;;;;;;;;;5080510;28;20073;-64
2023/09/20 09:48:13;;;;;;;1.42;0.85;;;;;;;;;;5079163;28;20146;-66
2023/09/20 09:50:45;;;;;;;5.70;1.00;;;;;;;;;;5076913;28;20336;-65
2023/09/20 09:53:16;;;;;;;1.45;0.60;;;;;;;;;;5075099;28;21273;-64
2023/09/20 09:55:46;;;;;;;3.72;0.98;;;;;;;;;;5080154;28;20040;-65
2023/09/20 09:58:15;;;;;;;1.98;0.88;;;;;;;;;;5082097;28;20485;-65
2023/09/20 10:00:45;;;;;;;3.63;0.60;;;;;;;;;;5079698;28;20068;-66
2023/09/20 10:03:21;;;;;;;0.85;0.60;;;;;;;;;;5079823;28;20296;-66
2023/09/20 10:05:52;;;;;;;3.67;0.80;;;;;;;;;;5073995;28;20048;-66
2023/09/20 10:08:22;;;;;;;1.85;0.57;;;;;;;;;;5077408;28;20464;-65
2023/09/20 10:10:51;;;;;;;1.80;0.90;;;;;;;;;;5078134;28;20044;-65
2023/09/20 10:13:19;;;;;;;2.22;0.98;;;;;;;;;;5069574;28;20378;-65
2023/09/20 10:15:49;;;;;;;2.42;0.70;;;;;;;;;;5078912;28;20048;-66
2023/09/20 10:18:18;;;;;;;0.70;0.57;;;;;;;;;;5075334;28;20154;-65
2023/09/20 10:21:00;;;;;;;2.15;0.60;;;;;;;;;;5078800;28;20044;-65
2023/09/20 10:23:30;;;;;;;1.08;0.60;;;;;;;;;;5080422;28;20048;-67
2023/09/20 10:26:00;;;;;;;0.88;0.60;;;;;;;;;;5082936;28;20039;-65
2023/09/20 10:28:37;;;;;;;2.53;0.70;;;;;;;;;;5082052;28;20111;-66
2023/09/20 10:31:06;;;;;;;1.52;0.68;;;;;;;;;;5086417;28;20056;-65
2023/09/20 10:33:47;;;;;;;3.38;0.95;;;;;;;;;;5075097;28;20363;-66
2023/09/20 10:36:19;;;;;;;4.28;0.60;;;;;;;;;;5081557;28;20056;-66
2023/09/20 10:38:49;;;;;;;1.77;0.70;;;;;;;;;;5078757;28;20388;-65
2023/09/20 10:41:18;;;;;;;1.75;0.70;;;;;;;;;;5078551;28;20052;-65
2023/09/20 10:43:54;;;;;;;0.65;0.55;;;;;;;;;;5075953;28;20451;-67
2023/09/20 10:46:27;;;;;;;2.20;0.90;;;;;;;;;;5078316;28;20043;-67
2023/09/20 10:48:56;;;;;;;0.85;0.60;;;;;;;;;;5079329;28;20056;-66
2023/09/20 10:51:44;;;;;;;0.85;0.70;;;;;;;;;;5082096;28;20179;-68
2023/09/20 10:54:20;;;;;;;2.88;0.70;;;;;;;;;;5077381;28;20139;-66
2023/09/20 10:56:57;;;;;;;2.08;0.75;;;;;;;;;;5081248;28;20117;-66
2023/09/20 10:59:26;;;;;;;1.40;0.75;;;;;;;;;;5081419;28;20044;-65
2023/09/20 11:01:56;;;;;;;1.17;0.70;;;;;;;;;;5081115;28;20048;-65
2023/09/20 11:04:24;;;;;;;1.33;0.70;;;;;;;;;;5080098;28;20044;-64
2023/09/20 11:06:53;;;;;;;2.47;0.80;;;;;;;;;;5075950;28;20041;-65
2023/09/20 11:09:23;;;;;;;0.90;0.70;;;;;;;;;;5071254;28;20044;-65
2023/09/20 11:11:52;;;;;;;0.93;0.55;;;;;;;;;;5078457;28;20036;-67
2023/09/20 11:14:23;;;;;;;1.02;0.65;;;;;;;;;;5075095;28;20040;-67
2023/09/20 11:16:52;;;;;;;0.85;0.73;;;;;;;;;;5077783;28;20044;-65
2023/09/20 11:19:21;;;;;;;1.05;0.70;;;;;;;;;;5083289;28;20411;-67
2023/09/20 11:21:49;;;;;;;1.52;0.60;;;;;;;;;;5087983;28;20046;-65
2023/09/20 11:24:18;;;;;;;0.63;0.60;;;;;;;;;;5082006;28;20052;-67
2023/09/20 11:26:49;;;;;;;0.85;0.60;;;;;;;;;;5081832;28;20074;-66
2023/09/20 11:29:17;;;;;;;1.67;1.27;;;;;;;;;;5083075;28;20127;-66
2023/09/20 11:31:48;;;;;;;2.85;0.77;;;;;;;;;;5083316;28;20136;-65
2023/09/20 11:34:17;;;;;;;1.27;0.80;;;;;;;;;;5079468;28;20079;-66
2023/09/20 11:36:46;;;;;;;1.75;0.90;;;;;;;;;;5085235;28;20067;-67
2023/09/20 11:39:17;;;;;;;0.75;0.60;;;;;;;;;;5081784;28;20093;-66
2023/09/20 11:41:46;;;;;;;0.93;0.60;;;;;;;;;;5085452;28;20051;-65
2023/09/20 11:44:20;;;;;;;2.47;0.90;;;;;;;;;;5072781;28;20062;-66
2023/09/20 11:46:53;;;;;;;1.67;0.83;;;;;;;;;;5080626;28;20051;-65
2023/09/20 11:49:26;;;;;;;0.60;0.50;;;;;;;;;;5083207;28;20302;-66
2023/09/20 11:51:54;;;;;;;4.60;0.88;;;;;;;;;;5080956;28;20039;-66
2023/09/20 11:54:26;;;;;;;1.15;0.70;;;;;;;;;;5082134;28;20048;-66
2023/09/20 11:56:59;;;;;;;0.88;0.73;;;;;;;;;;5082705;28;20052;-66
2023/09/20 11:59:29;;;;;;;1.38;0.70;;;;;;;;;;5080994;28;20055;-68
2023/09/20 12:01:57;;;;;;;1.20;0.80;;;;;;;;;;5085372;28;20051;-67
2023/09/20 12:04:25;;;;;;;1.45;0.60;;;;;;;;;;5078848;28;20156;-67
2023/09/20 12:06:56;;;;;;;1.50;0.70;;;;;;;;;;5081067;28;20044;-69
2023/09/20 12:09:26;;;;;;;3.17;0.70;;;;;;;;;;5077527;28;20577;-67
2023/09/20 12:11:55;;;;;;;1.25;0.77;;;;;;;;;;5085955;28;20047;-66
2023/09/20 12:14:23;;;;;;;1.55;0.60;;;;;;;;;;5080654;28;20066;-66
2023/09/20 12:16:55;;;;;;;0.70;0.70;;;;;;;;;;5081484;28;20105;-67
2023/09/20 12:19:24;;;;;;;0.98;0.60;;;;;;;;;;5081515;28;20130;-67
2023/09/20 12:21:53;;;;;;;1.77;0.77;;;;;;;;;;5080637;28;20845;-66
2023/09/20 12:24:22;;;;;;;1.15;0.60;;;;;;;;;;5083359;28;20342;-67
2023/09/20 12:26:51;;;;;;;0.63;0.50;;;;;;;;;;5079059;28;20412;-66
2023/09/20 12:29:20;;;;;;;2.53;0.70;;;;;;;;;;5079375;28;20112;-67
2023/09/20 12:31:49;;;;;;;1.08;0.70;;;;;;;;;;5083190;28;20265;-68
2023/09/20 12:34:20;;;;;;;2.40;0.70;;;;;;;;;;5074593;28;20048;-68
2023/09/20 12:36:49;;;;;;;0.70;0.65;;;;;;;;;;5079033;28;20040;-68
2023/09/20 12:39:17;;;;;;;1.58;0.70;;;;;;;;;;5076605;28;20597;-68
2023/09/20 12:41:46;;;;;;;1.75;0.80;;;;;;;;;;5080665;28;20044;-68
2023/09/20 12:44:15;;;;;;;2.13;1.08;;;;;;;;;;5074292;28;20054;-67
2023/09/20 12:46:44;;;;;;;2.97;0.77;;;;;;;;;;5080869;28;20058;-67
2023/09/20 12:49:13;;;;;;;3.33;0.70;;;;;;;;;;5074608;28;20113;-69
2023/09/20 12:51:43;;;;;;;4.57;0.75;;;;;;;;;;5072513;28;20037;-67
2023/09/20 12:54:11;;;;;;;3.08;0.93;;;;;;;;;;5074722;28;20047;-67
2023/09/20 12:56:40;;;;;;;1.73;0.70;;;;;;;;;;5075053;28;20044;-67
2023/09/20 12:59:08;;;;;;;1.75;0.82;;;;;;;;;;5075170;28;20071;-67
2023/09/20 13:01:38;;;;;;;2.33;0.95;;;;;;;;;;5079488;28;20048;-67
2023/09/20 13:04:07;;;;;;;0.90;0.70;;;;;;;;;;5079104;28;20048;-67
2023/09/20 13:06:36;;;;;;;0.70;0.60;;;;;;;;;;5079278;28;20048;-67
2023/09/20 13:09:07;;;;;;;2.83;0.77;;;;;;;;;;5083156;28;20068;-69
2023/09/20 13:11:35;;;;;;;1.45;0.73;;;;;;;;;;5068776;28;20048;-67
2023/09/20 13:14:03;;;;;;;1.52;0.60;;;;;;;;;;5078404;28;20119;-69
2023/09/20 13:16:32;;;;;;;1.17;0.70;;;;;;;;;;5082323;28;20093;-71
2023/09/20 13:19:00;;;;;;;6.55;1.15;;;;;;;;;;5077642;28;20127;-70
2023/09/20 13:21:29;;;;;;;2.97;1.17;;;;;;;;;;5077359;28;20048;-70
2023/09/20 13:23:59;;;;;;;1.33;0.75;;;;;;;;;;5079725;28;20064;-70
2023/09/20 13:26:29;;;;;;;13.80;1.20;;;;;;;;;;5079656;28;20048;-69
2023/09/20 13:28:57;;;;;;;10.88;1.40;;;;;;;;;;5078078;28;20067;-68
2023/09/20 13:31:26;;;;;;;1.33;0.80;;;;;;;;;;5077107;28;20489;-69
2023/09/20 13:33:55;;;;;;;1.10;0.70;;;;;;;;;;5083147;28;20504;-71
2023/09/20 13:36:25;;;;;;;1.27;0.90;;;;;;;;;;5080444;28;20048;-70
2023/09/20 13:38:53;;;;;;;6.70;0.98;;;;;;;;;;5082309;28;20048;-72
2023/09/20 13:41:24;;;;;;;2.13;0.98;;;;;;;;;;5081502;28;20043;-72
2023/09/20 13:43:54;;;;;;;3.38;1.00;;;;;;;;;;5080363;28;20043;-71
2023/09/20 13:46:25;;;;;;;1.25;0.60;;;;;;;;;;5076848;28;20422;-71
2023/09/20 13:48:53;;;;;;;1.65;1.38;;;;;;;;;;5082606;28;20036;-70
2023/09/20 13:51:22;;;;;;;1.90;0.82;;;;;;;;;;5083572;28;20054;-69
2023/09/20 13:53:51;;;;;;;1.10;0.80;;;;;;;;;;5080376;28;20044;-69
2023/09/20 13:56:19;;;;;;;0.70;0.60;;;;;;;;;;5079900;28;20068;-71
2023/09/20 13:58:48;;;;;;;2.03;0.90;;;;;;;;;;5083160;28;20132;-71
2023/09/20 14:01:18;;;;;;;1.48;0.70;;;;;;;;;;5083917;28;20804;-68
2023/09/20 14:03:47;;;;;;;1.40;0.70;;;;;;;;;;5085170;28;20397;-70
2023/09/20 14:06:16;;;;;;;2.30;0.93;;;;;;;;;;5077952;28;20127;-71
2023/09/20 14:08:45;;;;;;;1.25;0.80;;;;;;;;;;5082439;28;20051;-71
2023/09/20 14:11:14;;;;;;;1.90;0.88;;;;;;;;;;5085006;28;20058;-71
2023/09/20 14:13:42;;;;;;;3.10;0.88;;;;;;;;;;5082089;28;21182;-71
2023/09/20 14:16:14;;;;;;;0.98;0.85;;;;;;;;;;5076412;28;20132;-70
2023/09/20 14:18:44;;;;;;;1.77;0.70;;;;;;;;;;5081366;28;20476;-71
2023/09/20 14:21:14;;;;;;;2.63;0.82;;;;;;;;;;5078695;28;20040;-70
2023/09/20 14:23:42;;;;;;;1.10;0.82;;;;;;;;;;5077867;28;20401;-70
2023/09/20 14:26:11;;;;;;;1.70;0.65;;;;;;;;;;5078995;28;20047;-69
2023/09/20 14:28:41;;;;;;;0.93;0.60;;;;;;;;;;5083798;28;20138;-69
2023/09/20 14:31:16;;;;;;;1.13;0.60;;;;;;;;;;5082906;28;20047;-69
2023/09/20 14:33:48;;;;;;;1.90;1.10;;;;;;;;;;5080608;28;20062;-70
2023/09/20 14:36:18;;;;;;;1.25;0.82;;;;;;;;;;5078747;28;20130;-70
2023/09/20 14:38:46;;;;;;;14.73;13.73;;;;;;;;;;5078242;28;20052;-69
2023/09/20 14:41:15;;;;;;;0.10;0.10;;;;;;;;;;5081648;28;20508;-70
2023/09/20 14:43:44;;;;;;;3.95;3.72;;;;;;;;;;5084479;28;20052;-70
2023/09/20 14:46:12;;;;;;;0.10;0.10;;;;;;;;;;5076763;28;20569;-70
2023/09/20 14:48:41;;;;;;;2.17;0.90;;;;;;;;;;5079114;28;20063;-71
2023/09/20 14:51:15;;;;;;;6.82;6.18;;;;;;;;;;5083466;28;20079;-71
2023/09/20 14:53:43;;;;;;;3.03;0.80;;;;;;;;;;5078595;28;20135;-69
2023/09/20 14:56:13;;;;;;;3.85;0.63;;;;;;;;;;5082781;28;20753;-70
2023/09/20 14:58:41;;;;;;;1.23;0.70;;;;;;;;;;5080207;28;20044;-70
2023/09/20 15:01:13;;;;;;;2.80;1.05;;;;;;;;;;5085279;28;20073;-70
2023/09/20 15:03:41;;;;;;;4.82;4.45;;;;;;;;;;5080249;28;20374;-69
2023/09/20 15:06:17;;;;;;;3.75;0.60;;;;;;;;;;5078821;28;20541;-68
2023/09/20 15:08:48;;;;;;;1.77;0.85;;;;;;;;;;5084395;28;20043;-69
2023/09/20 15:11:17;;;;;;;1.25;0.70;;;;;;;;;;5086365;28;20462;-69
2023/09/20 15:13:48;;;;;;;16.02;15.02;;;;;;;;;;5084972;28;20048;-69
2023/09/20 15:16:17;;;;;;;2.20;0.95;;;;;;;;;;5082578;28;20056;-69
2023/09/20 15:18:45;;;;;;;3.17;0.80;;;;;;;;;;5077692;28;20048;-69
2023/09/20 15:21:40;;;;;;;1.85;0.70;;;;;;;;;;5084214;28;20036;-69
2023/09/20 15:24:11;;;;;;;3.45;0.80;;;;;;;;;;5084961;28;20051;-70
2023/09/20 15:26:39;;;;;;;2.00;0.73;;;;;;;;;;5086710;28;20096;-69
2023/09/20 15:29:16;;;;;;;2.67;0.80;;;;;;;;;;5082521;28;20049;-69
2023/09/20 15:31:45;;;;;;;1.42;1.00;;;;;;;;;;5079214;28;20105;-70
2023/09/20 15:34:15;;;;;;;1.55;0.98;;;;;;;;;;5083898;28;20296;-69
2023/09/20 15:36:44;;;;;;;8.27;7.60;;;;;;;;;;5083114;28;20390;-69